Time;durP1;ratioP1;P1;durP2;ratioP2;P2;SDS_P1;SDS_P2;PMS_P1;PMS_P2;Temp;Humidity;BMP_temperature;BMP_pressure;BME280_temperature;BME280_humidity;BME280_pressure;Samples;Min_cycle;Max_cycle;Signal;HPM_P1;HPM_P2
2022/03/20 00:00:45;;;;;;;1.63;1.53;;;;;;;-4.69;55.24;96442.72;2615158;47;20696;-70
2022/03/20 00:03:23;;;;;;;1.70;1.43;;;;;;;-4.86;55.46;96451.13;2614723;54;20315;-70
2022/03/20 00:05:58;;;;;;;1.90;1.87;;;;;;;-5.27;56.01;96411.69;2615608;39;20621;-70
2022/03/20 00:08:29;;;;;;;1.27;1.27;;;;;;;-5.18;56.89;96439.75;2615500;54;20154;-69
2022/03/20 00:11:11;;;;;;;1.00;1.00;;;;;;;-5.02;56.68;96461.00;2614823;47;20158;-70
2022/03/20 00:13:43;;;;;;;0.90;0.90;;;;;;;-5.59;56.88;96343.06;2615118;54;20234;-70
2022/03/20 00:18:59;;;;;;;1.00;1.00;;;;;;;-2.60;52.13;96372.09;2615079;54;20156;-70
2022/03/20 00:21:44;;;;;;;1.10;1.10;;;;;;;-1.30;49.99;96452.56;2615172;54;20261;-70
2022/03/20 00:24:15;;;;;;;0.50;0.50;;;;;;;-1.05;47.91;96461.41;2614804;47;20160;-70
2022/03/20 00:26:52;;;;;;;2.30;2.20;;;;;;;-1.08;46.29;96377.75;2615651;54;20766;-70
2022/03/20 00:29:30;;;;;;;0.50;0.50;;;;;;;-0.60;46.62;96469.56;2615217;47;20201;-70
2022/03/20 00:32:09;;;;;;;1.80;1.10;;;;;;;-0.99;46.13;96445.38;2615780;46;20675;-70
2022/03/20 00:34:46;;;;;;;1.80;1.50;;;;;;;-1.09;46.06;96467.28;2615347;47;20686;-70
2022/03/20 00:37:51;;;;;;;2.20;2.10;;;;;;;-0.31;46.64;96471.16;2614926;54;20166;-71
2022/03/20 00:40:36;;;;;;;0.80;0.80;;;;;;;-0.26;43.95;96381.16;2614626;47;20730;-69
2022/03/20 00:45:53;;;;;;;0.73;0.73;;;;;;;2.09;43.77;96454.03;2614939;54;20180;-71
2022/03/20 00:48:24;;;;;;;2.47;1.60;;;;;;;1.91;45.60;96416.03;2615020;47;20252;-70
2022/03/20 00:51:03;;;;;;;1.67;1.63;;;;;;;3.87;46.75;96451.66;2615064;54;20153;-71
2022/03/20 00:53:38;;;;;;;1.97;1.87;;;;;;;4.04;44.90;96359.22;2615004;47;20672;-71
2022/03/20 00:56:12;;;;;;;2.63;2.43;;;;;;;5.46;45.18;96460.69;2614691;54;20155;-71
2022/03/20 00:58:54;;;;;;;2.43;2.23;;;;;;;3.39;38.08;96457.34;2615080;47;20152;-70
2022/03/20 01:01:28;;;;;;;4.80;2.87;;;;;;;1.57;42.14;96463.06;2614935;39;20575;-71
2022/03/20 01:06:41;;;;;;;2.00;2.00;;;;;;;2.00;42.55;96462.97;2615008;47;20157;-70
2022/03/20 01:09:26;;;;;;;2.40;2.20;;;;;;;1.03;42.82;96378.41;2614573;47;20672;-70
2022/03/20 01:11:58;;;;;;;1.60;1.50;;;;;;;2.24;43.86;96441.34;2614973;47;20153;-70
2022/03/20 01:14:30;;;;;;;1.43;1.43;;;;;;;3.19;45.94;96444.34;2615111;54;20152;-70
2022/03/20 01:19:45;;;;;;;2.47;2.27;;;;;;;3.00;40.74;96460.84;2615087;54;20145;-70
2022/03/20 01:22:26;;;;;;;0.90;0.90;;;;;;;3.91;44.63;96423.97;2614854;54;20152;-70
2022/03/20 01:25:01;;;;;;;1.77;1.67;;;;;;;3.20;44.54;96389.81;2614919;54;20197;-70
2022/03/20 01:27:42;;;;;;;1.03;1.03;;;;;;;3.74;37.68;96362.97;2614766;54;20164;-70
2022/03/20 01:30:18;;;;;;;1.13;0.97;;;;;;;2.98;45.94;96455.06;2614879;47;20186;-69
2022/03/20 01:32:58;;;;;;;1.83;1.73;;;;;;;1.32;40.82;96418.88;2614864;47;20202;-70
2022/03/20 01:35:35;;;;;;;0.93;0.93;;;;;;;1.35;46.43;96462.44;2614912;54;20720;-70
2022/03/20 01:40:53;;;;;;;0.80;0.80;;;;;;;2.08;43.63;96426.63;2615619;54;20160;-70
2022/03/20 01:43:33;;;;;;;1.60;1.53;;;;;;;3.99;44.45;96463.91;2615734;54;20156;-71
2022/03/20 01:46:11;;;;;;;2.67;2.40;;;;;;;3.50;43.71;96431.69;2615432;47;20162;-70
2022/03/20 01:48:46;;;;;;;1.43;1.33;;;;;;;4.78;42.95;96470.59;2615665;46;20192;-69
2022/03/20 01:52:10;;;;;;;2.40;1.60;;;;;;;4.52;37.03;96457.91;2615655;54;20737;-69
2022/03/20 01:54:18;;;;;;;2.33;2.10;;;;;;;1.36;42.06;96329.94;2615292;47;20154;-70
2022/03/20 01:57:02;;;;;;;2.03;1.90;;;;;;;1.80;43.92;96475.03;2615424;47;20176;-70
2022/03/20 01:59:33;;;;;;;1.37;1.23;;;;;;;0.67;46.72;96348.53;2615517;47;20153;-70
2022/03/20 02:02:15;;;;;;;2.03;1.87;;;;;;;0.88;42.92;96443.25;2615395;54;20470;-71
2022/03/20 02:04:46;;;;;;;1.60;1.40;;;;;;;0.74;45.68;96472.56;2615810;47;20217;-71
2022/03/20 02:07:24;;;;;;;1.10;1.10;;;;;;;1.31;45.31;96456.47;2615584;47;20156;-71
2022/03/20 02:09:57;;;;;;;2.17;2.07;;;;;;;0.59;41.59;96388.81;2615685;54;20189;-70
2022/03/20 02:12:43;;;;;;;0.87;0.87;;;;;;;1.23;42.78;96464.06;2615284;47;20152;-71
2022/03/20 02:17:59;;;;;;;1.20;1.20;;;;;;;2.16;41.79;96469.31;2615658;47;20244;-70
2022/03/20 02:20:31;;;;;;;1.93;1.83;;;;;;;0.46;40.90;96344.31;2615615;47;20156;-71
2022/03/20 02:23:15;;;;;;;1.63;1.30;;;;;;;1.00;43.91;96401.84;2615819;47;20696;-72
2022/03/20 02:26:04;;;;;;;0.90;0.90;;;;;;;1.17;41.31;96466.28;2615570;47;20163;-70
2022/03/20 02:28:35;;;;;;;1.63;1.53;;;;;;;0.70;43.93;96441.47;2615482;54;20175;-72
2022/03/20 02:31:13;;;;;;;1.10;1.10;;;;;;;0.90;42.54;96462.25;2615504;47;20173;-72
2022/03/20 02:33:45;;;;;;;1.53;1.53;;;;;;;1.92;41.48;96417.47;2613465;47;20157;-70
2022/03/20 02:36:17;;;;;;;1.23;1.03;;;;;;;1.12;43.04;96377.88;2615407;54;20153;-70
2022/03/20 02:39:05;;;;;;;1.70;1.60;;;;;;;1.95;42.07;96463.88;2615345;54;20158;-71
2022/03/20 02:41:44;;;;;;;1.53;1.50;;;;;;;4.06;49.55;96460.31;2615259;54;20187;-70
